EGTE/EXT METAR and TAF weather

Enter ICAO airport designator
Station Type Date Time Source
EGTE METAR 2021/10/20 01:20 UTC NOAA

EGTE 200120Z 20007KT 9000 -RA FEW007 BKN014 16/15 Q1004


Station Type Date Time Source
EGTE Decoded METAR 2021/10/20 01:20 UTC NOAA

Exeter Airport, United Kingdom (EGTE) 50-44N 003-25W
Oct 19, 2021 - 09:20 PM EDT / 2021.10.20 0120 UTC
Wind: from the SSW (200 degrees) at 8 MPH (7 KT):0
Visibility: 5 mile(s):0
Sky conditions: mostly cloudy
Weather: light rain
Temperature: 60 F (16 C)
Dew Point: 59 F (15 C)
Relative Humidity: 93%
Pressure (altimeter): 29.65 in. Hg (1004 hPa)
ob: EGTE 200120Z 20007KT 9000 -RA FEW007 BKN014 16/15 Q1004
cycle: 1

Station Type Date Time Source
EGTE TAF 2012/04/19 12:15 UTC NOAA

TAF TAF EGTE 191401Z 1912/1924 31016KT 9999 SCT030 SCT035 PROB40
TEMPO 1915/1918 7000 SHRA BKN014

Example: see airport list